Time;durP1;ratioP1;P1;durP2;ratioP2;P2;SDS_P1;SDS_P2;PMS_P1;PMS_P2;Temp;Humidity;BMP_temperature;BMP_pressure;BME280_temperature;BME280_humidity;BME280_pressure;Samples;Min_cycle;Max_cycle;Signal;HPM_P1;HPM_P2
2022/03/24 00:01:45;;;;;;;6.57;4.50;;;23.10;33.50;;;;;;5026615;28;20091;-44
2022/03/24 00:04:11;;;;;;;5.93;3.83;;;23.10;33.40;;;;;;5026150;28;20795;-44
2022/03/24 00:06:37;;;;;;;5.40;4.05;;;23.10;33.40;;;;;;5025741;28;20033;-44
2022/03/24 00:09:04;;;;;;;5.97;4.13;;;23.10;33.40;;;;;;5025737;28;20032;-43
2022/03/24 00:11:30;;;;;;;5.80;3.97;;;23.00;33.30;;;;;;5025994;28;20025;-44
2022/03/24 00:13:56;;;;;;;5.47;3.95;;;23.00;33.30;;;;;;5023053;28;20462;-43
2022/03/24 00:16:22;;;;;;;5.35;4.05;;;23.00;33.30;;;;;;5025570;28;20033;-44
2022/03/24 00:18:48;;;;;;;4.72;3.55;;;23.00;33.40;;;;;;5025129;28;20079;-44
2022/03/24 00:21:17;;;;;;;5.57;3.63;;;23.00;33.40;;;;;;5026009;28;20026;-44
2022/03/24 00:23:43;;;;;;;5.70;3.85;;;23.00;33.30;;;;;;5025826;28;20669;-44
2022/03/24 00:26:09;;;;;;;5.70;3.90;;;23.00;33.30;;;;;;5024545;28;20548;-44
2022/03/24 00:28:35;;;;;;;6.13;4.18;;;23.00;33.30;;;;;;5026269;28;20124;-44
2022/03/24 00:31:02;;;;;;;5.57;3.85;;;23.00;33.30;;;;;;5025806;28;20131;-43
2022/03/24 00:33:28;;;;;;;5.80;3.70;;;23.00;33.30;;;;;;5026336;28;20116;-43
2022/03/24 00:35:55;;;;;;;6.47;4.25;;;23.00;33.30;;;;;;5026263;28;20037;-44
2022/03/24 00:38:21;;;;;;;5.25;3.80;;;23.00;33.30;;;;;;5026204;28;20037;-44
2022/03/24 00:40:47;;;;;;;5.70;4.25;;;23.00;33.30;;;;;;5025738;28;20033;-44
2022/03/24 00:43:13;;;;;;;4.95;3.65;;;22.90;33.30;;;;;;5025253;28;20025;-43
2022/03/24 00:45:41;;;;;;;7.00;4.03;;;22.90;33.20;;;;;;5025109;28;20017;-44
2022/03/24 00:48:10;;;;;;;5.40;4.03;;;22.90;33.20;;;;;;5024913;28;20044;-44
2022/03/24 00:50:36;;;;;;;4.80;3.53;;;22.90;33.20;;;;;;5024969;28;20037;-43
2022/03/24 00:53:03;;;;;;;4.90;3.40;;;22.90;33.30;;;;;;5025466;28;20029;-43
2022/03/24 00:55:30;;;;;;;5.20;3.60;;;22.90;33.20;;;;;;5024828;28;20108;-44
2022/03/24 00:57:56;;;;;;;5.43;3.92;;;22.90;33.20;;;;;;5024568;28;20033;-42
2022/03/24 01:00:25;;;;;;;5.20;3.70;;;22.90;33.20;;;;;;5024839;28;20047;-44
2022/03/24 01:02:53;;;;;;;5.30;3.70;;;22.90;33.30;;;;;;5025000;28;20037;-44
2022/03/24 01:05:28;;;;;;;4.78;3.53;;;22.90;33.30;;;;;;5024973;28;20136;-44
2022/03/24 01:07:55;;;;;;;5.28;3.88;;;22.80;33.20;;;;;;5025014;28;20021;-44
2022/03/24 01:10:22;;;;;;;5.55;4.07;;;22.80;33.20;;;;;;5025562;28;20074;-43
2022/03/24 01:12:49;;;;;;;4.80;3.72;;;22.90;33.20;;;;;;5025176;28;20032;-44
2022/03/24 01:15:17;;;;;;;5.60;4.07;;;22.80;33.10;;;;;;5025264;28;20022;-43
2022/03/24 01:17:45;;;;;;;5.70;3.88;;;22.80;33.10;;;;;;5024790;28;20025;-44
2022/03/24 01:20:12;;;;;;;5.00;3.90;;;22.80;33.10;;;;;;5023898;28;20026;-44
2022/03/24 01:22:38;;;;;;;5.05;3.78;;;22.80;33.20;;;;;;5024785;28;20033;-44
2022/03/24 01:25:08;;;;;;;4.97;3.45;;;22.80;33.10;;;;;;5025081;28;20033;-44
2022/03/24 01:27:34;;;;;;;4.63;3.22;;;22.80;33.20;;;;;;5025412;28;20029;-43
2022/03/24 01:30:01;;;;;;;5.82;4.45;;;22.80;33.10;;;;;;5025321;28;20672;-44
2022/03/24 01:32:28;;;;;;;5.55;3.53;;;22.80;33.10;;;;;;5024845;28;20091;-44
2022/03/24 01:34:54;;;;;;;4.93;3.38;;;22.80;33.10;;;;;;5022964;28;20119;-43
2022/03/24 01:37:23;;;;;;;4.95;3.63;;;22.80;33.10;;;;;;5024477;28;20022;-44
2022/03/24 01:39:49;;;;;;;5.43;3.53;;;22.80;33.00;;;;;;5025503;28;20021;-43
2022/03/24 01:42:16;;;;;;;4.60;3.35;;;22.80;33.10;;;;;;5024497;28;20026;-44
2022/03/24 01:44:46;;;;;;;5.32;3.95;;;22.80;33.10;;;;;;5022973;28;20021;-44
2022/03/24 01:47:13;;;;;;;6.03;3.97;;;22.70;33.10;;;;;;5024840;28;20101;-42
2022/03/24 01:49:47;;;;;;;5.25;3.80;;;22.70;33.10;;;;;;5024110;28;20405;-44
2022/03/24 01:52:14;;;;;;;4.88;3.47;;;22.70;33.20;;;;;;5024955;28;20460;-44
2022/03/24 01:54:46;;;;;;;4.45;3.28;;;22.70;33.10;;;;;;5025297;28;20726;-44
2022/03/24 01:57:14;;;;;;;5.13;3.85;;;22.70;33.10;;;;;;5024176;28;20088;-42
2022/03/24 01:59:40;;;;;;;5.18;3.70;;;22.70;33.20;;;;;;5022949;28;20029;-44
2022/03/24 02:02:07;;;;;;;4.72;3.35;;;22.70;33.10;;;;;;5024087;28;20025;-44
2022/03/24 02:04:35;;;;;;;5.10;3.83;;;22.70;33.10;;;;;;5023362;28;20056;-44
2022/03/24 02:07:05;;;;;;;4.72;3.63;;;22.70;33.10;;;;;;5023851;28;20024;-44
2022/03/24 02:09:33;;;;;;;6.05;4.20;;;22.70;33.10;;;;;;5023887;28;20060;-43
2022/03/24 02:12:00;;;;;;;4.85;3.55;;;22.70;33.10;;;;;;5022174;28;20049;-44
2022/03/24 02:14:29;;;;;;;5.03;3.80;;;22.70;33.00;;;;;;5024546;28;20033;-43
2022/03/24 02:16:56;;;;;;;5.43;3.75;;;22.70;33.00;;;;;;5023737;28;20108;-44
2022/03/24 02:19:24;;;;;;;5.40;3.83;;;22.70;33.00;;;;;;5024147;28;20033;-44
2022/03/24 02:21:52;;;;;;;5.88;3.95;;;22.60;32.90;;;;;;5023529;28;20029;-44
2022/03/24 02:24:19;;;;;;;5.20;4.10;;;22.70;33.00;;;;;;5024415;28;20097;-44
2022/03/24 02:26:46;;;;;;;5.45;3.95;;;22.60;32.90;;;;;;5023604;28;20033;-44
2022/03/24 02:29:14;;;;;;;5.20;3.92;;;22.60;33.00;;;;;;5024436;28;20660;-44
2022/03/24 02:31:51;;;;;;;6.28;4.07;;;22.60;33.00;;;;;;5023618;28;20404;-44
2022/03/24 02:34:37;;;;;;;5.13;3.90;;;22.60;33.00;;;;;;5022474;28;20025;-44
2022/03/24 02:37:14;;;;;;;4.72;3.38;;;22.60;33.10;;;;;;5022397;28;20022;-43
2022/03/24 02:39:42;;;;;;;5.50;4.10;;;22.60;33.00;;;;;;5024168;28;20025;-44
2022/03/24 02:42:16;;;;;;;5.25;3.83;;;22.60;33.10;;;;;;5023299;28;20029;-43
2022/03/24 02:44:44;;;;;;;5.13;3.75;;;22.60;33.00;;;;;;5022990;28;20034;-44
2022/03/24 02:47:11;;;;;;;4.85;3.63;;;22.60;33.00;;;;;;5023543;28;20072;-43
2022/03/24 02:49:37;;;;;;;5.60;4.05;;;22.60;33.00;;;;;;5023013;28;20022;-43
2022/03/24 02:52:04;;;;;;;5.05;3.70;;;22.60;33.00;;;;;;5004046;28;20026;-43
2022/03/24 02:54:31;;;;;;;4.80;3.72;;;22.60;32.90;;;;;;5004118;28;20046;-44
2022/03/24 02:56:58;;;;;;;5.95;4.18;;;22.60;33.00;;;;;;5003357;28;20022;-43
2022/03/24 02:59:24;;;;;;;5.75;4.22;;;22.60;33.00;;;;;;5003578;28;20061;-44
2022/03/24 03:01:54;;;;;;;4.78;3.30;;;22.50;32.90;;;;;;5003258;28;20661;-44
2022/03/24 03:04:21;;;;;;;5.20;3.60;;;22.60;33.00;;;;;;5009166;28;20108;-43
2022/03/24 03:06:47;;;;;;;5.18;3.85;;;22.60;32.90;;;;;;5023824;28;20559;-43
2022/03/24 03:09:16;;;;;;;4.72;3.55;;;22.60;32.90;;;;;;5024017;28;20037;-44
2022/03/24 03:11:47;;;;;;;4.93;3.67;;;22.50;32.90;;;;;;5024192;28;20029;-43
2022/03/24 03:14:15;;;;;;;6.22;3.55;;;22.60;32.90;;;;;;5023003;28;20136;-44
2022/03/24 03:16:42;;;;;;;4.68;3.28;;;22.50;32.90;;;;;;5023798;28;20056;-44
2022/03/24 03:19:08;;;;;;;5.50;4.28;;;22.50;32.90;;;;;;5023409;28;20081;-44
2022/03/24 03:21:41;;;;;;;5.50;3.63;;;22.50;33.00;;;;;;5023906;28;20561;-44
2022/03/24 03:24:08;;;;;;;5.15;3.83;;;22.50;33.00;;;;;;5023686;28;20049;-43
2022/03/24 03:26:34;;;;;;;5.10;3.53;;;22.50;32.90;;;;;;5022915;28;20393;-44
2022/03/24 03:29:00;;;;;;;6.07;4.40;;;22.50;33.00;;;;;;5022981;28;20428;-44
2022/03/24 03:31:28;;;;;;;5.15;3.80;;;22.50;33.00;;;;;;5021312;28;20033;-44
2022/03/24 03:33:55;;;;;;;5.00;3.70;;;22.50;32.90;;;;;;5023215;28;20105;-44
2022/03/24 03:36:22;;;;;;;4.82;3.85;;;22.50;32.90;;;;;;5021560;28;20029;-44
2022/03/24 03:38:48;;;;;;;5.07;3.80;;;22.50;32.90;;;;;;5023831;28;20046;-44
2022/03/24 03:41:16;;;;;;;5.07;3.80;;;22.50;32.90;;;;;;5023410;28;20052;-45
2022/03/24 03:43:42;;;;;;;5.57;3.95;;;22.50;32.90;;;;;;5023577;28;20080;-44
2022/03/24 03:46:09;;;;;;;5.07;3.90;;;22.40;32.80;;;;;;5005520;28;20472;-44
2022/03/24 03:48:36;;;;;;;5.10;3.80;;;22.40;32.80;;;;;;5026860;28;20037;-44
2022/03/24 03:51:02;;;;;;;4.75;3.53;;;22.40;32.80;;;;;;5027138;28;20037;-43
2022/03/24 03:53:28;;;;;;;5.20;3.95;;;22.40;32.80;;;;;;5027217;28;20705;-43
2022/03/24 03:55:54;;;;;;;5.03;3.75;;;22.40;32.80;;;;;;5026766;28;20036;-44
2022/03/24 03:58:20;;;;;;;4.88;3.38;;;22.40;32.80;;;;;;5027645;28;20528;-43
2022/03/24 04:00:58;;;;;;;5.07;3.90;;;22.40;32.80;;;;;;5027296;28;20034;-44
2022/03/24 04:03:29;;;;;;;4.55;3.33;;;22.40;32.90;;;;;;5026492;28;20039;-43
2022/03/24 04:05:57;;;;;;;5.15;3.97;;;22.40;32.90;;;;;;5026830;28;20158;-43
2022/03/24 04:08:23;;;;;;;5.30;3.95;;;22.40;32.90;;;;;;5027033;28;20037;-42
2022/03/24 04:10:49;;;;;;;5.13;4.10;;;22.40;32.90;;;;;;5026813;28;20604;-44
2022/03/24 04:13:17;;;;;;;5.00;3.63;;;22.40;32.90;;;;;;5026771;28;20088;-44
2022/03/24 04:15:43;;;;;;;4.93;3.35;;;22.40;32.80;;;;;;5026113;28;20079;-44
2022/03/24 04:18:09;;;;;;;4.47;3.47;;;22.40;32.90;;;;;;5027244;28;20048;-44
2022/03/24 04:20:36;;;;;;;4.80;3.72;;;22.40;32.80;;;;;;5026600;28;20029;-44
2022/03/24 04:23:04;;;;;;;5.22;3.50;;;22.40;32.80;;;;;;5026555;28;20029;-44
2022/03/24 04:25:30;;;;;;;6.40;3.35;;;22.40;32.80;;;;;;5026177;28;20100;-43
2022/03/24 04:27:57;;;;;;;4.50;3.35;;;22.40;32.80;;;;;;5025996;28;20765;-44
2022/03/24 04:30:25;;;;;;;5.05;3.50;;;22.40;32.80;;;;;;5026420;28;20033;-44
2022/03/24 04:32:51;;;;;;;6.07;3.90;;;22.40;32.80;;;;;;5024861;28;20025;-43
2022/03/24 04:35:17;;;;;;;5.15;3.85;;;22.40;32.70;;;;;;5025745;28;20030;-44
2022/03/24 04:37:44;;;;;;;5.40;4.07;;;22.40;32.80;;;;;;5025879;28;20079;-43
2022/03/24 04:40:11;;;;;;;5.82;3.50;;;22.30;32.80;;;;;;5026635;28;20029;-44
2022/03/24 04:42:40;;;;;;;5.53;4.13;;;22.40;32.80;;;;;;5025083;28;20040;-44
2022/03/24 04:45:06;;;;;;;6.72;4.20;;;22.30;32.80;;;;;;5026454;28;20422;-44
2022/03/24 04:47:34;;;;;;;5.72;4.05;;;22.30;32.80;;;;;;5026114;28;20021;-44
2022/03/24 04:50:00;;;;;;;5.25;3.53;;;22.40;32.80;;;;;;5025107;28;20037;-43
2022/03/24 04:52:26;;;;;;;5.05;3.85;;;22.30;32.80;;;;;;5026429;28;20037;-43
2022/03/24 04:54:52;;;;;;;6.25;3.80;;;22.30;32.90;;;;;;5025390;28;20100;-43
2022/03/24 04:57:18;;;;;;;5.03;3.63;;;22.30;32.80;;;;;;5025813;28;20033;-43
2022/03/24 04:59:43;;;;;;;4.78;3.42;;;22.30;32.80;;;;;;5025265;28;20033;-44
2022/03/24 05:02:15;;;;;;;4.60;3.60;;;22.30;32.80;;;;;;5026129;28;20051;-44
2022/03/24 05:04:41;;;;;;;5.45;3.85;;;22.30;32.80;;;;;;5025192;28;20030;-43
2022/03/24 05:07:09;;;;;;;5.13;3.72;;;22.30;32.80;;;;;;5025726;28;20025;-44
2022/03/24 05:09:35;;;;;;;4.47;3.45;;;22.30;32.80;;;;;;5025285;28;20116;-44
2022/03/24 05:12:01;;;;;;;5.05;3.95;;;22.30;32.90;;;;;;5025663;28;20034;-43
2022/03/24 05:14:27;;;;;;;5.30;4.00;;;22.30;32.90;;;;;;5025781;28;20087;-44
2022/03/24 05:16:53;;;;;;;4.55;3.08;;;22.30;32.90;;;;;;5024634;28;20033;-44
2022/03/24 05:19:19;;;;;;;5.25;3.78;;;22.30;33.10;;;;;;5024916;28;20026;-43
2022/03/24 05:21:45;;;;;;;5.28;4.03;;;22.30;33.10;;;;;;5024552;28;20681;-43
2022/03/24 05:24:12;;;;;;;4.45;3.08;;;22.30;33.10;;;;;;5024782;28;20096;-44
2022/03/24 05:26:38;;;;;;;5.10;3.85;;;22.30;33.10;;;;;;5022376;28;20095;-44
2022/03/24 05:29:04;;;;;;;4.53;3.47;;;22.30;33.10;;;;;;5024535;28;20109;-44
2022/03/24 05:31:30;;;;;;;4.28;3.08;;;22.40;33.10;;;;;;5024364;28;20060;-43
2022/03/24 05:33:56;;;;;;;4.90;3.38;;;22.40;32.90;;;;;;5024074;28;20456;-44
2022/03/24 05:36:22;;;;;;;8.27;4.40;;;22.40;32.90;;;;;;5021986;28;20084;-43
2022/03/24 05:38:47;;;;;;;14.48;6.78;;;22.50;32.90;;;;;;5023505;28;20445;-43
2022/03/24 05:41:13;;;;;;;26.02;9.95;;;22.60;33.10;;;;;;5022738;28;21058;-44
2022/03/24 05:43:40;;;;;;;28.02;12.05;;;22.60;33.30;;;;;;5023681;28;20108;-44
2022/03/24 05:46:06;;;;;;;20.90;10.35;;;22.60;33.40;;;;;;5021003;28;20022;-43
2022/03/24 05:48:33;;;;;;;23.23;11.73;;;22.70;33.60;;;;;;5023803;28;20112;-45
2022/03/24 05:51:00;;;;;;;25.23;11.02;;;22.70;33.60;;;;;;5024106;28;20685;-44
2022/03/24 05:53:26;;;;;;;31.02;12.38;;;22.80;33.90;;;;;;5023499;28;20033;-45
2022/03/24 05:55:52;;;;;;;23.17;10.70;;;22.80;33.90;;;;;;5023117;28;20057;-44
2022/03/24 05:58:17;;;;;;;21.05;10.32;;;22.90;33.80;;;;;;5023513;28;20057;-44
2022/03/24 06:00:43;;;;;;;16.90;8.35;;;22.90;33.60;;;;;;5023717;28;20454;-44
2022/03/24 06:03:09;;;;;;;13.75;8.82;;;23.00;33.50;;;;;;5023186;28;20033;-43
2022/03/24 06:05:36;;;;;;;15.25;7.90;;;23.00;33.30;;;;;;5023126;28;20037;-43
2022/03/24 06:08:03;;;;;;;13.57;7.15;;;23.00;33.30;;;;;;5021150;28;20033;-44
2022/03/24 06:10:30;;;;;;;14.18;8.13;;;23.10;33.30;;;;;;5021879;28;20033;-44
2022/03/24 06:12:58;;;;;;;15.77;7.82;;;23.10;33.20;;;;;;5016328;28;20021;-44
2022/03/24 06:15:24;;;;;;;13.05;8.15;;;23.20;33.20;;;;;;5022321;28;20025;-43
2022/03/24 06:17:50;;;;;;;15.75;7.43;;;23.20;33.10;;;;;;5017970;28;20026;-45
2022/03/24 06:20:16;;;;;;;14.55;7.43;;;23.20;33.10;;;;;;5011545;28;20559;-44
2022/03/24 06:22:52;;;;;;;14.52;7.00;;;23.20;33.10;;;;;;5016994;28;20030;-44
2022/03/24 06:25:18;;;;;;;11.35;6.47;;;23.30;33.20;;;;;;5017347;28;20037;-43
2022/03/24 06:27:46;;;;;;;12.10;6.40;;;23.30;33.10;;;;;;5022101;28;20026;-44
2022/03/24 06:30:14;;;;;;;10.82;6.50;;;23.40;33.00;;;;;;5022715;28;20079;-44
2022/03/24 06:32:40;;;;;;;10.05;6.05;;;23.40;32.80;;;;;;5023906;28;20034;-45
2022/03/24 06:35:08;;;;;;;11.20;6.15;;;23.40;32.70;;;;;;5022876;28;20125;-44
2022/03/24 06:37:39;;;;;;;9.07;5.32;;;23.40;32.60;;;;;;5023439;28;20101;-44
2022/03/24 06:40:10;;;;;;;11.35;6.50;;;23.50;32.50;;;;;;5020897;28;20017;-44
2022/03/24 06:42:36;;;;;;;8.68;5.38;;;23.50;32.40;;;;;;5022531;28;20022;-44
2022/03/24 06:45:04;;;;;;;8.15;5.13;;;23.40;32.30;;;;;;5019591;28;20017;-44
2022/03/24 06:47:30;;;;;;;10.02;5.63;;;23.40;32.20;;;;;;5022979;28;20017;-44
2022/03/24 06:49:56;;;;;;;8.63;5.80;;;23.50;32.30;;;;;;5023109;28;20029;-44
2022/03/24 06:52:22;;;;;;;9.38;5.18;;;23.50;32.20;;;;;;5021947;28;20021;-44
2022/03/24 06:54:47;;;;;;;9.68;5.65;;;23.50;32.10;;;;;;5023180;28;20104;-43
2022/03/24 06:57:14;;;;;;;8.55;5.10;;;23.50;32.00;;;;;;5003614;28;20060;-44
2022/03/24 06:59:41;;;;;;;7.78;5.13;;;23.50;32.00;;;;;;5022352;28;20083;-43
2022/03/24 07:02:07;;;;;;;8.15;4.82;;;23.50;32.00;;;;;;5021970;28;20028;-43
2022/03/24 07:04:34;;;;;;;7.38;5.05;;;23.50;32.00;;;;;;5022599;28;20041;-44
2022/03/24 07:07:00;;;;;;;8.02;4.88;;;23.50;31.90;;;;;;5022295;28;20034;-43
2022/03/24 07:09:26;;;;;;;7.65;4.68;;;23.50;31.90;;;;;;5021417;28;20037;-44
2022/03/24 07:11:52;;;;;;;9.02;5.22;;;23.50;31.90;;;;;;5023082;28;20033;-44
2022/03/24 07:14:17;;;;;;;8.52;4.10;;;23.50;31.90;;;;;;5021183;28;20060;-44
2022/03/24 07:16:44;;;;;;;7.47;5.43;;;23.50;31.90;;;;;;5022633;28;20030;-43
2022/03/24 07:19:10;;;;;;;8.38;5.13;;;23.40;31.90;;;;;;5021614;28;20506;-44
2022/03/24 07:21:36;;;;;;;8.55;4.53;;;23.50;32.10;;;;;;5023259;28;20076;-44
2022/03/24 07:24:02;;;;;;;12.52;6.07;;;23.40;32.00;;;;;;5025927;28;20293;-44
2022/03/24 07:26:28;;;;;;;20.75;6.63;;;23.50;32.10;;;;;;5026201;28;20034;-45
2022/03/24 07:28:53;;;;;;;13.88;7.10;;;23.40;32.00;;;;;;5025415;28;20500;-45
2022/03/24 07:31:20;;;;;;;12.75;5.78;;;23.40;32.00;;;;;;5026827;28;20030;-45
2022/03/24 07:33:49;;;;;;;15.38;7.30;;;23.40;31.90;;;;;;5027072;28;20030;-45
2022/03/24 07:36:16;;;;;;;12.05;6.30;;;23.40;31.90;;;;;;5026852;28;20042;-44
2022/03/24 07:38:42;;;;;;;10.20;5.55;;;23.40;31.90;;;;;;5027091;28;20512;-51
2022/03/24 07:41:09;;;;;;;10.35;5.47;;;23.40;31.80;;;;;;5027725;28;20306;-45
2022/03/24 07:43:34;;;;;;;10.40;5.35;;;23.40;31.80;;;;;;5027626;28;20033;-44
2022/03/24 07:46:00;;;;;;;10.30;5.38;;;23.40;32.40;;;;;;5027071;28;20095;-44
2022/03/24 07:48:26;;;;;;;8.90;5.30;;;23.40;31.80;;;;;;5025996;28;20120;-44
2022/03/24 07:50:54;;;;;;;11.05;5.60;;;23.30;31.80;;;;;;5025702;28;20041;-44
2022/03/24 07:53:27;;;;;;;8.95;4.82;;;23.30;31.70;;;;;;5027420;28;20140;-43
2022/03/24 07:55:56;;;;;;;9.27;4.68;;;23.40;31.60;;;;;;5026693;28;20112;-43
2022/03/24 07:58:22;;;;;;;11.05;5.20;;;23.40;31.60;;;;;;5027352;28;20667;-44
2022/03/24 08:00:48;;;;;;;9.35;4.85;;;23.30;31.60;;;;;;5027113;28;20120;-44
2022/03/24 08:03:16;;;;;;;9.52;4.97;;;23.30;32.10;;;;;;5027014;28;20107;-44
2022/03/24 08:05:44;;;;;;;8.48;4.78;;;23.30;31.50;;;;;;5027220;28;20040;-44
2022/03/24 08:08:10;;;;;;;7.30;4.20;;;23.30;31.50;;;;;;5026034;28;20136;-43
2022/03/24 08:10:41;;;;;;;8.88;5.32;;;23.40;31.50;;;;;;5027220;28;20044;-43
2022/03/24 08:13:08;;;;;;;8.05;4.18;;;23.30;32.20;;;;;;5027178;28;20033;-44
2022/03/24 08:15:36;;;;;;;7.72;4.57;;;23.40;31.50;;;;;;5026186;28;20034;-45
2022/03/24 08:18:04;;;;;;;7.20;4.35;;;23.40;31.40;;;;;;5025234;28;20033;-44
2022/03/24 08:20:30;;;;;;;6.90;4.78;;;23.40;31.50;;;;;;5026671;28;20060;-43
2022/03/24 08:22:56;;;;;;;5.68;3.83;;;23.40;31.50;;;;;;5026597;28;20029;-44
2022/03/24 08:25:22;;;;;;;6.38;3.53;;;23.40;32.10;;;;;;5008710;28;20029;-44
2022/03/24 08:27:48;;;;;;;7.22;4.15;;;23.40;31.50;;;;;;5026270;28;20030;-45
2022/03/24 08:30:14;;;;;;;6.60;3.90;;;23.40;31.50;;;;;;5026607;28;20025;-44
2022/03/24 08:32:41;;;;;;;7.20;4.50;;;23.40;31.50;;;;;;5024963;28;20021;-43
2022/03/24 08:35:08;;;;;;;6.82;4.18;;;23.50;31.60;;;;;;5025354;28;20113;-44
2022/03/24 08:37:34;;;;;;;7.05;4.18;;;23.40;31.50;;;;;;5008775;28;20108;-45
2022/03/24 08:40:00;;;;;;;6.15;3.63;;;23.40;32.20;;;;;;5026357;28;20101;-43
2022/03/24 08:42:25;;;;;;;9.18;4.63;;;23.50;31.60;;;;;;5026551;28;20021;-44
2022/03/24 08:44:51;;;;;;;6.75;3.83;;;23.50;31.60;;;;;;5026469;28;20091;-44
2022/03/24 08:47:17;;;;;;;6.38;3.92;;;23.50;31.60;;;;;;5025712;28;20025;-44
2022/03/24 08:49:44;;;;;;;7.13;4.20;;;23.50;31.60;;;;;;5026019;28;20083;-45
2022/03/24 08:52:10;;;;;;;8.02;4.28;;;23.50;31.60;;;;;;5026218;28;20048;-44
2022/03/24 08:54:36;;;;;;;7.15;4.10;;;23.50;31.60;;;;;;5026451;28;20029;-43
2022/03/24 08:57:02;;;;;;;6.22;3.85;;;23.50;31.50;;;;;;5026076;28;20030;-44
2022/03/24 08:59:28;;;;;;;5.75;4.07;;;23.50;31.50;;;;;;5026033;28;20033;-44
2022/03/24 09:01:53;;;;;;;6.20;3.88;;;23.50;31.50;;;;;;5025991;28;20025;-44
2022/03/24 09:04:23;;;;;;;6.05;3.60;;;23.50;31.50;;;;;;5024751;28;20074;-44
2022/03/24 09:06:49;;;;;;;6.45;4.30;;;23.50;31.50;;;;;;5025334;28;20068;-44
2022/03/24 09:09:15;;;;;;;6.30;3.55;;;23.50;31.50;;;;;;5024596;28;20034;-45
2022/03/24 09:11:40;;;;;;;7.18;3.92;;;23.50;31.50;;;;;;5026250;28;20048;-44
2022/03/24 09:14:06;;;;;;;5.82;3.60;;;23.50;31.50;;;;;;5025758;28;20440;-44
2022/03/24 09:16:32;;;;;;;5.93;3.45;;;23.60;31.50;;;;;;5025811;28;20311;-43
2022/03/24 09:18:58;;;;;;;7.68;3.72;;;23.60;31.60;;;;;;5024820;28;20433;-44
2022/03/24 09:21:24;;;;;;;6.60;4.10;;;23.60;31.50;;;;;;5025840;28;20117;-43
2022/03/24 09:23:50;;;;;;;5.68;3.58;;;23.60;31.50;;;;;;5024799;28;20112;-44
2022/03/24 09:26:16;;;;;;;5.95;3.55;;;23.60;31.50;;;;;;5025091;28;20026;-44
2022/03/24 09:28:42;;;;;;;6.10;3.70;;;23.60;31.50;;;;;;5025379;28;20033;-44
2022/03/24 09:31:08;;;;;;;5.35;3.33;;;23.60;31.50;;;;;;5025822;28;20033;-44
2022/03/24 09:33:36;;;;;;;5.82;3.80;;;23.60;31.50;;;;;;5024143;28;20018;-44
2022/03/24 09:36:01;;;;;;;6.05;3.30;;;23.60;31.50;;;;;;5024652;28;20037;-44
2022/03/24 09:38:27;;;;;;;7.03;3.72;;;23.60;31.50;;;;;;5025071;28;20370;-45
2022/03/24 09:40:53;;;;;;;6.32;3.40;;;23.70;31.50;;;;;;5024971;28;20025;-45
2022/03/24 09:43:21;;;;;;;5.78;3.83;;;23.70;31.50;;;;;;5025523;28;20451;-45
2022/03/24 09:45:48;;;;;;;6.95;3.80;;;23.70;31.50;;;;;;5025015;28;20083;-44
2022/03/24 09:48:15;;;;;;;6.10;4.03;;;23.60;31.40;;;;;;5025225;28;20037;-44
2022/03/24 09:50:44;;;;;;;6.57;3.83;;;23.70;31.50;;;;;;5024760;28;20348;-44
2022/03/24 09:53:11;;;;;;;5.40;3.58;;;23.70;31.40;;;;;;5025030;28;20044;-43
2022/03/24 09:55:37;;;;;;;7.53;3.80;;;23.70;31.50;;;;;;5023533;28;20030;-44
2022/03/24 09:58:06;;;;;;;5.85;3.50;;;23.70;31.40;;;;;;5024713;28;20083;-44
2022/03/24 10:00:31;;;;;;;5.68;3.70;;;23.70;31.40;;;;;;5025009;28;20830;-44
2022/03/24 10:03:15;;;;;;;4.88;3.45;;;23.70;31.40;;;;;;5023897;28;20029;-44
2022/03/24 10:06:06;;;;;;;6.25;3.15;;;23.60;31.30;;;;;;5024733;28;20041;-43
2022/03/24 10:08:36;;;;;;;6.18;3.17;;;23.60;31.30;;;;;;5024844;28;20056;-45
2022/03/24 10:11:07;;;;;;;4.97;3.28;;;23.60;31.30;;;;;;5025016;28;20032;-44
2022/03/24 10:13:42;;;;;;;4.90;3.05;;;23.60;31.30;;;;;;5024820;28;20056;-44
2022/03/24 10:16:09;;;;;;;5.32;3.47;;;23.60;31.30;;;;;;5024129;28;20057;-46
2022/03/24 10:18:35;;;;;;;4.78;3.15;;;23.60;31.40;;;;;;5024197;28;20029;-44
2022/03/24 10:21:03;;;;;;;5.13;3.20;;;23.60;31.30;;;;;;5023858;28;20029;-44
2022/03/24 10:23:35;;;;;;;5.05;3.15;;;23.60;31.30;;;;;;5024547;28;20017;-44
2022/03/24 10:26:05;;;;;;;6.38;3.55;;;23.60;31.30;;;;;;5024532;28;20072;-44
2022/03/24 10:28:31;;;;;;;4.50;2.80;;;23.60;31.30;;;;;;5023373;28;20517;-44
2022/03/24 10:31:03;;;;;;;4.65;3.33;;;23.60;31.30;;;;;;5024870;28;20056;-44
2022/03/24 10:33:37;;;;;;;4.05;2.65;;;23.60;31.30;;;;;;5024449;28;20036;-44
2022/03/24 10:36:13;;;;;;;5.03;3.15;;;23.60;31.30;;;;;;5023754;28;20484;-44
2022/03/24 10:38:45;;;;;;;5.63;3.00;;;23.60;31.30;;;;;;5024382;28;20025;-45
2022/03/24 10:41:18;;;;;;;4.88;2.75;;;23.60;31.30;;;;;;5024642;28;20032;-44
2022/03/24 10:43:44;;;;;;;4.45;2.80;;;23.60;31.30;;;;;;5022593;28;20025;-44
2022/03/24 10:46:14;;;;;;;4.85;2.90;;;23.60;31.40;;;;;;5024249;28;20041;-44
2022/03/24 10:48:40;;;;;;;4.15;2.40;;;23.70;31.40;;;;;;5023752;28;20057;-45
2022/03/24 10:51:06;;;;;;;4.13;2.53;;;23.70;31.50;;;;;;5024202;28;20118;-44
2022/03/24 10:53:41;;;;;;;3.42;2.05;;;23.70;31.40;;;;;;5024386;28;20137;-45
2022/03/24 10:56:17;;;;;;;4.97;3.28;;;23.70;31.40;;;;;;5024305;28;20543;-44
2022/03/24 10:58:49;;;;;;;3.85;2.38;;;23.70;31.40;;;;;;5029354;28;20030;-43
2022/03/24 11:01:21;;;;;;;4.55;2.72;;;23.70;31.40;;;;;;5027215;28;20036;-44
2022/03/24 11:03:47;;;;;;;4.47;3.17;;;23.70;31.40;;;;;;5028355;28;20628;-44
2022/03/24 11:06:14;;;;;;;4.18;2.78;;;23.70;31.40;;;;;;5028213;28;20429;-44
2022/03/24 11:08:42;;;;;;;4.20;2.63;;;23.70;31.40;;;;;;5028033;28;20033;-44
2022/03/24 11:11:12;;;;;;;4.00;2.70;;;23.70;31.40;;;;;;5028223;28;20037;-45
2022/03/24 11:13:51;;;;;;;4.43;2.78;;;23.80;31.40;;;;;;5027720;28;20029;-43
2022/03/24 11:16:19;;;;;;;3.78;2.53;;;23.80;31.40;;;;;;5027837;28;20040;-44
2022/03/24 11:18:46;;;;;;;4.13;2.55;;;23.80;31.40;;;;;;5027671;28;20195;-44
2022/03/24 11:21:29;;;;;;;4.18;2.25;;;23.70;31.30;;;;;;5028116;28;20051;-44
2022/03/24 11:23:56;;;;;;;4.38;2.55;;;23.70;31.30;;;;;;5027248;28;20105;-43
2022/03/24 11:26:24;;;;;;;5.30;3.10;;;23.80;31.30;;;;;;5027715;28;20083;-45
2022/03/24 11:28:52;;;;;;;3.80;2.38;;;23.80;31.20;;;;;;5027988;28;20517;-44
2022/03/24 11:31:18;;;;;;;4.80;2.83;;;23.80;31.20;;;;;;5026309;28;20075;-44
2022/03/24 11:33:47;;;;;;;4.82;2.70;;;23.80;31.10;;;;;;5027691;28;20030;-44
2022/03/24 11:36:14;;;;;;;3.80;2.50;;;23.80;31.10;;;;;;5026958;28;20053;-45
2022/03/24 11:38:41;;;;;;;4.00;2.33;;;23.80;31.10;;;;;;5027509;28;20025;-44
2022/03/24 11:41:36;;;;;;;4.55;2.58;;;23.80;31.10;;;;;;5027858;28;20029;-44
2022/03/24 11:44:08;;;;;;;3.58;2.25;;;23.80;31.10;;;;;;5019531;28;20034;-44
2022/03/24 11:46:59;;;;;;;4.00;2.28;;;23.80;31.10;;;;;;5026856;28;20028;-44
2022/03/24 11:49:26;;;;;;;4.10;2.45;;;23.80;31.10;;;;;;5027355;28;20041;-44
2022/03/24 11:51:58;;;;;;;4.82;2.60;;;23.80;31.10;;;;;;5026804;28;20053;-44
2022/03/24 11:54:33;;;;;;;4.13;2.50;;;23.80;31.20;;;;;;5027572;28;20578;-45
2022/03/24 11:57:25;;;;;;;4.47;2.65;;;23.80;31.20;;;;;;5026541;28;20041;-44
2022/03/24 12:00:13;;;;;;;4.00;2.78;;;23.80;31.20;;;;;;5027404;28;20022;-45
2022/03/24 12:02:40;;;;;;;4.40;2.45;;;23.80;31.30;;;;;;5023617;28;20136;-45
2022/03/24 12:05:06;;;;;;;4.43;2.60;;;23.80;31.30;;;;;;5027390;28;20017;-44
2022/03/24 12:07:32;;;;;;;4.60;2.60;;;23.80;31.30;;;;;;5026472;28;20041;-45
2022/03/24 12:10:03;;;;;;;4.50;2.30;;;23.80;31.30;;;;;;5027072;28;20485;-44
2022/03/24 12:12:29;;;;;;;4.22;2.28;;;23.90;31.50;;;;;;5027408;28;20021;-45
2022/03/24 12:14:58;;;;;;;5.25;2.75;;;23.90;31.40;;;;;;5027069;28;20208;-44
2022/03/24 12:17:31;;;;;;;3.92;2.30;;;23.90;31.30;;;;;;5026900;28;20265;-45
2022/03/24 12:20:00;;;;;;;;;;;23.90;31.30;;;;;;5027340;28;20022;-44
2022/03/24 12:22:26;;;;;;;3.60;2.30;;;23.90;31.30;;;;;;5026765;28;19962;-45
2022/03/24 12:25:08;;;;;;;4.10;2.55;;;23.90;31.20;;;;;;5026621;28;20033;-44
2022/03/24 12:27:58;;;;;;;4.10;2.13;;;23.90;31.20;;;;;;5025322;28;20059;-44
2022/03/24 12:30:26;;;;;;;4.18;2.25;;;24.00;31.20;;;;;;5026674;28;20036;-44
2022/03/24 12:33:05;;;;;;;5.57;3.00;;;24.00;31.10;;;;;;5026679;28;20037;-44
2022/03/24 12:35:50;;;;;;;4.43;2.20;;;24.00;31.10;;;;;;5026382;28;20033;-45
2022/03/24 12:38:40;;;;;;;3.72;2.25;;;24.00;31.10;;;;;;5026864;28;20021;-44
2022/03/24 12:41:06;;;;;;;3.95;2.15;;;24.10;31.10;;;;;;5026927;28;20025;-45
2022/03/24 12:43:49;;;;;;;4.07;2.40;;;24.10;31.10;;;;;;5025238;28;20549;-44
2022/03/24 12:46:23;;;;;;;4.28;2.33;;;24.10;31.00;;;;;;5026482;28;20505;-44
2022/03/24 12:48:50;;;;;;;3.95;2.17;;;24.10;31.00;;;;;;5026281;28;20041;-45
2022/03/24 12:51:17;;;;;;;3.65;2.08;;;24.20;30.90;;;;;;5026201;28;20037;-44